createdAt,value
2018-07-21T00:01:07.743Z,58.10
2018-07-21T00:03:37.136Z,58.20
2018-07-21T00:06:06.389Z,58.30
2018-07-21T00:08:35.610Z,58.10
2018-07-21T00:11:04.856Z,58.50
2018-07-21T00:13:34.061Z,58.50
2018-07-21T00:16:03.429Z,58.60
2018-07-21T00:18:32.804Z,58.50
2018-07-21T00:21:02.104Z,57.40
2018-07-21T00:23:31.355Z,57.70
2018-07-21T00:26:00.660Z,58.20
2018-07-21T00:28:29.877Z,58.70
2018-07-21T00:30:59.090Z,59.10
2018-07-21T00:33:28.297Z,59.40
2018-07-21T00:35:57.540Z,59.60
2018-07-21T00:38:26.717Z,59.70
2018-07-21T00:40:55.948Z,59.60
2018-07-21T00:43:25.113Z,59.50
2018-07-21T00:45:54.367Z,60.00
2018-07-21T00:48:23.590Z,60.10
2018-07-21T00:50:52.813Z,60.20
2018-07-21T00:53:22.156Z,60.40
2018-07-21T00:55:51.406Z,60.80
2018-07-21T00:58:20.608Z,61.00
2018-07-21T01:00:49.833Z,61.20
2018-07-21T01:03:19.049Z,60.90
2018-07-21T01:05:48.265Z,60.30
2018-07-21T01:08:17.465Z,61.00
2018-07-21T01:10:46.725Z,61.40
2018-07-21T01:13:16.094Z,61.10
2018-07-21T01:15:45.374Z,61.10
2018-07-21T01:18:14.629Z,60.40
2018-07-21T01:20:43.872Z,60.90
2018-07-21T01:23:13.080Z,61.20
2018-07-21T01:25:42.535Z,61.80
2018-07-21T01:28:11.729Z,62.20
2018-07-21T01:30:41.003Z,62.20
2018-07-21T01:33:10.212Z,62.10
2018-07-21T01:35:39.446Z,62.20
2018-07-21T01:38:08.653Z,62.00
2018-07-21T01:40:37.880Z,61.70
2018-07-21T01:43:07.081Z,61.80
2018-07-21T01:45:36.310Z,61.50
2018-07-21T01:48:29.078Z,61.70
2018-07-21T01:50:58.276Z,62.00
2018-07-21T01:53:42.756Z,62.20
2018-07-21T01:56:13.719Z,62.50
2018-07-21T01:58:46.529Z,62.30
2018-07-21T02:01:18.501Z,61.80
2018-07-21T02:03:55.136Z,61.80
2018-07-21T02:06:28.377Z,61.70
2018-07-21T02:08:57.581Z,61.70
2018-07-21T02:11:35.412Z,61.50
2018-07-21T02:14:05.708Z,61.80
2018-07-21T02:16:34.952Z,62.60
2018-07-21T02:19:04.629Z,62.00
2018-07-21T02:24:03.447Z,61.80
2018-07-21T02:29:08.645Z,62.80
2018-07-21T02:31:38.152Z,63.10
2018-07-21T02:34:12.186Z,63.30
2018-07-21T02:36:42.784Z,63.50
2018-07-21T02:39:12.754Z,63.00
2018-07-21T02:41:44.201Z,62.60
2018-07-21T02:44:14.663Z,62.70
2018-07-21T02:46:54.459Z,63.60
2018-07-21T02:49:26.235Z,62.70
2018-07-21T02:51:57.337Z,62.60
2018-07-21T02:54:33.308Z,62.80
2018-07-21T02:57:10.654Z,63.30
2018-07-21T02:59:39.865Z,64.30
2018-07-21T03:02:09.225Z,64.30
2018-07-21T03:04:38.449Z,64.20
2018-07-21T03:07:07.788Z,64.20
2018-07-21T03:09:37.036Z,64.80
2018-07-21T03:12:06.294Z,64.80
2018-07-21T03:14:35.543Z,64.50
2018-07-21T03:17:04.814Z,64.50
2018-07-21T03:19:34.034Z,65.60
2018-07-21T03:22:03.294Z,65.80
2018-07-21T03:24:32.527Z,66.10
2018-07-21T03:27:01.837Z,66.30
2018-07-21T03:29:31.048Z,66.40
2018-07-21T03:32:00.288Z,66.30
2018-07-21T03:34:29.528Z,66.20
2018-07-21T03:36:58.782Z,66.70
2018-07-21T03:39:27.995Z,66.90
2018-07-21T03:41:57.269Z,67.20
2018-07-21T03:44:26.736Z,67.50
2018-07-21T05:06:46.059Z,67.60
2018-07-21T05:09:15.319Z,65.50
2018-07-21T05:11:44.508Z,66.00
2018-07-21T05:14:13.728Z,66.40
2018-07-21T05:19:11.897Z,65.60
2018-07-21T05:21:41.097Z,65.90
2018-07-21T05:24:10.288Z,66.40
2018-07-21T05:26:39.522Z,65.90
2018-07-21T05:29:08.740Z,65.80
2018-07-21T05:31:37.924Z,65.50
2018-07-21T05:34:07.206Z,65.20
2018-07-21T05:36:36.439Z,64.50
2018-07-21T05:39:09.071Z,64.50
2018-07-21T05:41:38.272Z,64.20
2018-07-21T05:44:07.527Z,63.70
2018-07-21T05:46:37.164Z,62.80
2018-07-21T05:49:06.791Z,60.50
2018-07-21T05:51:36.019Z,59.70
2018-07-21T05:54:05.228Z,58.90
2018-07-21T05:56:34.440Z,58.70
2018-07-21T05:59:03.674Z,57.10
2018-07-21T06:01:32.872Z,58.10
2018-07-21T06:04:02.157Z,58.20
2018-07-21T06:06:31.400Z,57.40
2018-07-21T06:09:00.656Z,56.80
2018-07-21T06:11:29.861Z,56.60
2018-07-21T06:13:59.099Z,56.30
2018-07-21T06:16:28.315Z,55.90
2018-07-21T06:18:57.494Z,56.10
2018-07-21T06:21:26.732Z,58.00
2018-07-21T06:23:56.005Z,58.40
2018-07-21T06:26:25.245Z,58.60
2018-07-21T06:28:54.579Z,58.90
2018-07-21T06:31:23.796Z,58.90
2018-07-21T06:33:53.162Z,58.50
2018-07-21T06:36:22.745Z,58.40
2018-07-21T06:38:51.960Z,58.40
2018-07-21T06:41:21.179Z,57.70
2018-07-21T06:43:50.426Z,57.10
2018-07-21T06:46:19.714Z,57.30
2018-07-21T06:48:48.946Z,57.30
2018-07-21T06:51:18.178Z,56.70
2018-07-21T06:53:47.459Z,56.10
2018-07-21T06:56:16.667Z,55.90
2018-07-21T06:58:45.867Z,56.10
2018-07-21T07:01:15.920Z,55.30
2018-07-21T07:03:45.160Z,55.60
2018-07-21T07:06:14.408Z,55.30
2018-07-21T07:08:43.646Z,55.10
2018-07-21T07:11:13.206Z,55.10
2018-07-21T07:13:42.413Z,55.40
2018-07-21T07:16:11.630Z,55.50
2018-07-21T07:18:40.864Z,55.70
2018-07-21T07:21:10.151Z,56.20
2018-07-21T07:23:39.360Z,56.70
2018-07-21T07:26:08.616Z,57.10
2018-07-21T07:28:37.844Z,57.40
2018-07-21T07:31:07.105Z,58.20
2018-07-21T07:33:36.323Z,60.20
2018-07-21T07:36:05.520Z,62.70
2018-07-21T07:38:34.735Z,65.00
2018-07-21T07:41:03.974Z,65.30
2018-07-21T07:43:33.179Z,67.50
2018-07-21T07:46:02.405Z,68.40
2018-07-21T07:48:31.631Z,70.50
2018-07-21T07:51:00.892Z,71.70
2018-07-21T07:53:30.170Z,73.30
2018-07-21T07:55:59.424Z,75.80
2018-07-21T07:58:28.657Z,76.60
2018-07-21T08:00:57.966Z,77.20
2018-07-21T08:03:27.259Z,78.70
2018-07-21T08:05:56.493Z,80.00
2018-07-21T08:08:25.784Z,81.00
2018-07-21T08:10:54.984Z,81.50
2018-07-21T08:13:24.197Z,82.30
2018-07-21T08:15:53.599Z,83.40
2018-07-21T08:18:22.857Z,84.80
2018-07-21T08:20:52.083Z,85.00
2018-07-21T08:23:21.340Z,84.80
2018-07-21T08:25:50.577Z,85.60
2018-07-21T08:28:19.869Z,85.80
2018-07-21T08:30:49.263Z,85.60
2018-07-21T08:33:18.591Z,86.20
2018-07-21T08:35:47.861Z,86.60
2018-07-21T08:38:17.087Z,85.60
2018-07-21T08:40:46.333Z,84.20
2018-07-21T08:43:16.311Z,86.40
2018-07-21T08:45:45.613Z,84.50
2018-07-21T08:48:14.873Z,85.20
2018-07-21T08:50:44.480Z,86.40
2018-07-21T08:53:13.757Z,85.40
2018-07-21T08:55:43.054Z,84.90
2018-07-21T08:58:12.516Z,85.20
2018-07-21T09:00:41.818Z,85.40
2018-07-21T09:03:11.109Z,85.10
2018-07-21T09:08:09.406Z,85.60
2018-07-21T09:10:38.800Z,86.20
2018-07-21T09:13:08.180Z,86.20
2018-07-21T09:15:37.350Z,85.60
2018-07-21T09:18:06.604Z,85.50
2018-07-21T09:20:35.848Z,86.40
2018-07-21T09:23:05.232Z,85.50
2018-07-21T09:25:34.452Z,85.90
2018-07-21T09:28:03.655Z,85.70
2018-07-21T09:30:32.896Z,87.20
2018-07-21T09:33:02.205Z,87.00
2018-07-21T09:35:31.452Z,86.30
2018-07-21T09:38:00.688Z,86.30
2018-07-21T09:40:29.978Z,86.40
2018-07-21T09:42:59.202Z,88.60
2018-07-21T09:45:28.465Z,87.40
2018-07-21T09:47:57.686Z,88.10
2018-07-21T09:50:26.997Z,87.00
2018-07-21T09:52:56.270Z,87.40
2018-07-21T09:55:25.544Z,88.20
2018-07-21T09:57:54.943Z,88.40
2018-07-21T10:00:29.600Z,88.60
2018-07-21T10:02:58.821Z,89.30
2018-07-21T10:05:28.072Z,89.20
2018-07-21T10:07:57.309Z,89.30
2018-07-21T10:10:26.553Z,90.00
2018-07-21T10:12:55.843Z,90.60
2018-07-21T10:15:25.141Z,91.00
2018-07-21T10:17:54.554Z,91.00
2018-07-21T10:20:23.776Z,91.20
2018-07-21T10:22:53.008Z,91.10
2018-07-21T10:25:27.596Z,91.10
2018-07-21T10:28:02.052Z,91.00
2018-07-21T10:30:31.256Z,91.10
2018-07-21T10:33:00.496Z,91.00
2018-07-21T10:35:29.718Z,91.10
2018-07-21T10:37:58.982Z,91.40
2018-07-21T10:40:28.241Z,91.60
2018-07-21T10:42:57.503Z,91.80
2018-07-21T10:45:26.744Z,91.80
2018-07-21T10:47:55.951Z,91.60
2018-07-21T10:50:25.276Z,91.50
2018-07-21T10:52:54.536Z,91.50
2018-07-21T10:55:23.755Z,91.50
2018-07-21T10:57:53.196Z,91.30
2018-07-21T11:00:22.533Z,91.40
2018-07-21T11:02:51.724Z,91.30
2018-07-21T11:05:21.044Z,91.90
2018-07-21T11:07:50.297Z,91.70
2018-07-21T11:10:19.571Z,92.30
2018-07-21T11:12:48.822Z,92.10
2018-07-21T11:15:18.148Z,92.30
2018-07-21T11:17:47.349Z,92.10
2018-07-21T11:20:16.616Z,92.20
2018-07-21T11:22:45.853Z,92.10
2018-07-21T11:25:15.081Z,92.30
2018-07-21T11:27:44.341Z,92.10
2018-07-21T11:30:13.571Z,91.90
2018-07-21T11:32:43.084Z,91.90
2018-07-21T11:35:12.464Z,92.20
2018-07-21T11:37:41.667Z,92.40
2018-07-21T11:40:11.831Z,92.50
2018-07-21T11:42:41.098Z,92.70
2018-07-21T11:45:10.307Z,92.80
2018-07-21T11:47:41.643Z,92.60
2018-07-21T11:50:10.897Z,92.40
2018-07-21T11:52:40.134Z,92.30
2018-07-21T11:55:09.327Z,92.20
2018-07-21T11:57:38.573Z,91.80
2018-07-21T12:00:07.985Z,92.00
2018-07-21T12:02:37.201Z,92.00
2018-07-21T12:05:06.494Z,91.70
2018-07-21T12:10:04.825Z,91.70
2018-07-21T12:12:34.203Z,91.60
2018-07-21T12:15:03.469Z,91.70
2018-07-21T12:17:32.793Z,91.70
2018-07-21T12:20:02.066Z,91.30
2018-07-21T12:22:31.325Z,91.90
2018-07-21T12:25:00.580Z,91.60
2018-07-21T12:29:58.967Z,90.90
2018-07-21T12:32:28.187Z,90.70
2018-07-21T12:34:57.417Z,90.00
2018-07-21T12:39:55.777Z,90.70
2018-07-21T12:42:25.000Z,90.90
2018-07-21T12:44:54.338Z,90.60
2018-07-21T12:47:23.577Z,90.90
2018-07-21T12:52:21.821Z,91.00
2018-07-21T12:54:51.088Z,90.60
2018-07-21T12:57:20.361Z,90.60
2018-07-21T12:59:49.609Z,90.50
2018-07-21T13:02:18.825Z,90.60
2018-07-21T13:04:48.063Z,90.50
2018-07-21T13:07:17.298Z,90.40
2018-07-21T13:09:46.637Z,90.10
2018-07-21T13:12:15.831Z,90.10
2018-07-21T13:14:45.089Z,89.00
2018-07-21T13:17:14.357Z,90.00
2018-07-21T13:19:43.721Z,90.10
2018-07-21T13:22:12.957Z,90.10
2018-07-21T13:24:42.309Z,90.00
2018-07-21T13:27:11.534Z,89.90
2018-07-21T13:29:40.790Z,90.10
2018-07-21T13:32:10.313Z,89.50
2018-07-21T13:34:39.552Z,89.50
2018-07-21T13:37:08.751Z,88.90
2018-07-21T13:39:38.085Z,88.70
2018-07-21T13:42:07.503Z,88.70
2018-07-21T13:44:36.724Z,88.40
2018-07-21T13:47:06.073Z,88.20
2018-07-21T13:49:35.304Z,88.00
2018-07-21T13:52:04.505Z,87.80
2018-07-21T13:54:33.758Z,87.60
2018-07-21T13:57:03.011Z,87.40
2018-07-21T13:59:32.353Z,86.80
2018-07-21T14:02:01.606Z,86.90
2018-07-21T14:04:30.856Z,87.10
2018-07-21T14:07:00.175Z,86.40
2018-07-21T14:09:29.411Z,83.10
2018-07-21T14:11:58.628Z,84.10
2018-07-21T14:14:27.869Z,82.20
2018-07-21T14:16:57.206Z,82.30
2018-07-21T14:19:26.473Z,82.60
2018-07-21T14:21:56.118Z,82.90
2018-07-21T14:24:25.632Z,81.50
2018-07-21T14:26:54.891Z,81.10
2018-07-21T14:29:24.117Z,81.90
2018-07-21T14:31:53.351Z,82.30
2018-07-21T14:34:22.551Z,82.50
2018-07-21T14:36:51.903Z,82.70
2018-07-21T14:39:21.148Z,82.70
2018-07-21T14:41:50.470Z,82.70
2018-07-21T14:44:19.701Z,81.40
2018-07-21T14:46:48.919Z,81.80
2018-07-21T14:49:18.156Z,81.00
2018-07-21T14:51:47.416Z,81.50
2018-07-21T14:54:16.653Z,82.00
2018-07-21T14:56:45.947Z,82.20
2018-07-21T14:59:15.149Z,81.20
2018-07-21T15:01:44.575Z,80.40
2018-07-21T15:04:13.822Z,80.00
2018-07-21T15:06:43.054Z,80.00
2018-07-21T15:09:13.063Z,79.90
2018-07-21T15:11:42.470Z,78.70
2018-07-21T15:14:11.708Z,78.10
2018-07-21T15:16:41.137Z,79.20
2018-07-21T15:19:10.375Z,80.20
2018-07-21T15:21:39.660Z,80.30
2018-07-21T15:24:08.940Z,80.20
2018-07-21T15:26:38.155Z,79.40
2018-07-21T15:29:07.457Z,78.80
2018-07-21T15:31:36.692Z,79.50
2018-07-21T15:34:05.932Z,80.10
2018-07-21T15:36:35.187Z,80.00
2018-07-21T15:39:06.299Z,80.00
2018-07-21T15:41:35.536Z,80.70
2018-07-21T15:44:04.804Z,80.40
2018-07-21T15:46:34.068Z,80.50
2018-07-21T15:49:03.249Z,80.40
2018-07-21T15:51:32.499Z,80.50
2018-07-21T15:54:01.797Z,80.60
2018-07-21T15:56:31.027Z,80.50
2018-07-21T15:59:00.237Z,80.20
2018-07-21T16:01:29.529Z,80.10
2018-07-21T16:03:58.776Z,80.40
2018-07-21T16:06:27.992Z,80.50
2018-07-21T16:08:57.245Z,80.00
2018-07-21T16:13:55.462Z,80.20
2018-07-21T16:16:24.669Z,80.40
2018-07-21T16:18:54.054Z,80.20
2018-07-21T16:21:23.326Z,80.20
2018-07-21T16:23:52.573Z,80.70
2018-07-21T16:26:21.865Z,80.50
2018-07-21T16:28:51.103Z,80.30
2018-07-21T16:31:20.581Z,80.40
2018-07-21T16:33:49.890Z,80.40
2018-07-21T16:36:19.525Z,80.60
2018-07-21T16:38:48.807Z,80.50
2018-07-21T16:41:18.086Z,81.00
2018-07-21T16:43:47.328Z,80.90
2018-07-21T16:46:16.605Z,81.10
2018-07-21T16:48:45.919Z,81.40
2018-07-21T16:51:15.147Z,80.90
2018-07-21T16:56:13.454Z,81.20
2018-07-21T16:58:42.671Z,81.10
2018-07-21T17:01:11.913Z,80.70
2018-07-21T17:03:41.133Z,80.50
2018-07-21T17:06:10.362Z,80.70
2018-07-21T17:08:39.595Z,80.40
2018-07-21T17:11:08.867Z,80.30
2018-07-21T17:13:38.064Z,80.40
2018-07-21T17:16:07.308Z,80.20
2018-07-21T17:18:36.697Z,80.40
2018-07-21T17:21:05.964Z,80.40
2018-07-21T17:26:04.224Z,80.50
2018-07-21T17:28:33.666Z,80.40
2018-07-21T17:31:02.917Z,80.00
2018-07-21T17:33:32.260Z,80.10
2018-07-21T17:36:01.508Z,80.40
2018-07-21T17:38:30.767Z,79.90
2018-07-21T17:41:00.397Z,79.80
2018-07-21T17:43:29.635Z,80.00
2018-07-21T17:45:59.022Z,80.10
2018-07-21T17:48:28.241Z,80.00
2018-07-21T17:50:57.526Z,80.00
2018-07-21T17:55:55.759Z,79.90
2018-07-21T17:58:25.023Z,79.90
2018-07-21T18:00:54.305Z,79.70
2018-07-21T18:03:23.556Z,80.00
2018-07-21T18:05:52.853Z,80.00
2018-07-21T18:08:22.083Z,80.20
2018-07-21T18:10:51.344Z,80.10
2018-07-21T18:13:20.581Z,80.40
2018-07-21T18:15:49.852Z,80.20
2018-07-21T18:18:19.093Z,80.40
2018-07-21T18:20:48.346Z,80.50
2018-07-21T18:23:17.953Z,80.40
2018-07-21T18:25:47.220Z,80.50
2018-07-21T18:28:16.420Z,80.70
2018-07-21T18:30:45.669Z,81.00
2018-07-21T18:33:14.848Z,81.20
2018-07-21T18:35:44.066Z,81.80
2018-07-21T18:38:13.245Z,81.90
2018-07-21T18:40:42.505Z,81.70
2018-07-21T18:43:11.707Z,81.70
2018-07-21T18:45:40.937Z,81.80
2018-07-21T18:48:10.133Z,82.10
2018-07-21T18:50:39.385Z,82.30
2018-07-21T18:53:09.204Z,82.50
2018-07-21T18:55:38.437Z,82.70
2018-07-21T18:58:07.632Z,82.80
2018-07-21T19:00:36.889Z,82.90
2018-07-21T19:03:06.112Z,83.30
2018-07-21T19:05:35.360Z,83.40
2018-07-21T19:08:04.583Z,83.10
2018-07-21T19:10:33.785Z,83.10
2018-07-21T19:13:03.024Z,83.20
2018-07-21T19:15:37.432Z,83.40
2018-07-21T19:18:06.725Z,83.20
2018-07-21T19:20:41.412Z,83.40
2018-07-21T19:23:10.686Z,83.60
2018-07-21T19:25:45.248Z,83.50
2018-07-21T19:28:20.538Z,83.20
2018-07-21T19:30:51.134Z,83.10
2018-07-21T19:33:24.248Z,83.40
2018-07-21T19:35:53.460Z,84.00
2018-07-21T19:38:22.692Z,84.30
2018-07-21T19:40:51.914Z,84.60
2018-07-21T19:43:21.222Z,85.00
2018-07-21T19:45:50.420Z,85.10
2018-07-21T19:48:19.728Z,85.50
2018-07-21T19:50:48.916Z,85.70
2018-07-21T19:53:18.183Z,86.30
2018-07-21T19:55:47.411Z,86.80
2018-07-21T19:58:16.830Z,87.70
2018-07-21T20:00:46.088Z,87.10
2018-07-21T20:03:15.341Z,87.60
2018-07-21T20:05:44.711Z,87.60
2018-07-21T20:08:13.989Z,87.90
2018-07-21T20:10:43.185Z,87.90
2018-07-21T20:13:15.368Z,87.70
2018-07-21T20:15:44.632Z,87.60
2018-07-21T20:18:13.937Z,87.70
2018-07-21T20:20:43.163Z,87.60
2018-07-21T20:23:12.450Z,87.70
2018-07-21T20:25:41.691Z,87.90
2018-07-21T20:28:10.985Z,88.20
2018-07-21T20:30:40.193Z,88.20
2018-07-21T20:33:09.471Z,87.70
2018-07-21T20:35:38.672Z,87.90
2018-07-21T20:38:07.909Z,87.90
2018-07-21T20:40:37.289Z,88.40
2018-07-21T20:43:06.579Z,88.80
2018-07-21T20:45:35.786Z,89.20
2018-07-21T20:48:05.024Z,90.00
2018-07-21T20:50:34.354Z,90.10
2018-07-21T20:53:03.653Z,90.00
2018-07-21T20:55:32.897Z,90.10
2018-07-21T20:58:02.671Z,90.30
2018-07-21T21:00:32.865Z,90.40
2018-07-21T21:03:02.245Z,90.50
2018-07-21T21:05:31.545Z,90.30
2018-07-21T21:08:00.741Z,90.10
2018-07-21T21:10:29.957Z,90.00
2018-07-21T21:12:59.201Z,90.20
2018-07-21T21:15:28.432Z,90.50
2018-07-21T21:17:57.684Z,90.30
2018-07-21T21:20:26.922Z,90.60
2018-07-21T21:22:56.199Z,90.40
2018-07-21T21:25:25.421Z,90.30
2018-07-21T21:27:54.728Z,90.50
2018-07-21T21:30:23.928Z,90.30
2018-07-21T21:32:53.188Z,90.20
2018-07-21T21:35:22.457Z,90.60
2018-07-21T21:37:51.641Z,90.10
2018-07-21T21:40:20.853Z,90.30
2018-07-21T21:42:50.223Z,90.30
2018-07-21T21:45:19.520Z,90.30
2018-07-21T21:47:48.821Z,90.50
2018-07-21T21:50:18.024Z,90.80
2018-07-21T21:52:47.260Z,90.90
2018-07-21T21:55:16.511Z,91.20
2018-07-21T21:57:45.688Z,91.00
2018-07-21T22:00:15.105Z,91.00
2018-07-21T22:02:44.527Z,91.00
2018-07-21T22:05:14.123Z,91.00
2018-07-21T22:07:43.327Z,90.60
2018-07-21T22:10:12.612Z,91.30
2018-07-21T22:12:41.877Z,91.20
2018-07-21T22:15:15.821Z,91.20
2018-07-21T22:17:45.170Z,91.30
2018-07-21T22:20:14.437Z,91.00
2018-07-21T22:22:43.914Z,91.30
2018-07-21T22:25:13.195Z,91.50
2018-07-21T22:30:18.432Z,91.70
2018-07-21T22:32:47.692Z,91.90
2018-07-21T22:35:17.385Z,91.70
2018-07-21T22:37:46.647Z,91.60
2018-07-21T22:40:15.892Z,91.80
2018-07-21T22:42:45.124Z,92.10
2018-07-21T22:45:14.338Z,92.50
2018-07-21T22:47:43.552Z,92.30
2018-07-21T22:50:12.891Z,92.50
2018-07-21T22:52:42.103Z,92.60
2018-07-21T22:55:11.338Z,92.40
2018-07-21T22:57:40.665Z,92.70
2018-07-21T23:00:10.134Z,92.90
2018-07-21T23:02:40.164Z,92.80
2018-07-21T23:05:09.840Z,93.20
2018-07-21T23:07:39.068Z,93.10
2018-07-21T23:10:08.550Z,93.40
2018-07-21T23:12:37.825Z,93.30
2018-07-21T23:15:08.446Z,93.40
2018-07-21T23:17:37.682Z,94.00
2018-07-21T23:20:08.247Z,93.50
2018-07-21T23:22:37.642Z,93.30
2018-07-21T23:25:07.081Z,93.30
2018-07-21T23:27:36.665Z,93.30
2018-07-21T23:30:06.200Z,93.10
2018-07-21T23:32:35.627Z,93.00
2018-07-21T23:35:04.970Z,92.90
2018-07-21T23:37:34.176Z,92.80
2018-07-21T23:40:03.426Z,92.80
2018-07-21T23:42:32.699Z,92.60
2018-07-21T23:45:01.972Z,92.90
2018-07-21T23:47:31.199Z,92.50
2018-07-21T23:50:00.697Z,92.70
2018-07-21T23:52:29.902Z,92.40
2018-07-21T23:54:59.108Z,92.80
2018-07-21T23:57:28.352Z,92.90
2018-07-21T23:59:57.552Z,93.00
